Dulwich, United Kingdom
Current Conditions -  °F | °C
As of 10:20 AM on Tuesday 21 Oct 2014 (Local Time) from EGLC Reporting Station
Scattered Clouds Scattered Clouds  
Wind Chill: 55°   Ceiling: Unl
Heat Index: 55°   Visibility: 6mi
Dew Point: 45°   Wind: 28mph
Humidity: 67%   Direction: 280°W
Pressure: 29.56"   Gusts: NA
Location:  51.43°N, 0.09°W
Report Text: EGLC 210920Z 28024KT 9999 SCT028 13/07 Q1001 RERA
Loading
Personal Weather Stations






























Interactive Weather Map New forecast layout! Learn more

10-Day Weather Forecast

Advertisements
Track Severe Weather on mobile